Time;durP1;ratioP1;P1;durP2;ratioP2;P2;SDS_P1;SDS_P2;PMS_P1;PMS_P2;Temp;Humidity;BMP_temperature;BMP_pressure;BME280_temperature;BME280_humidity;BME280_pressure;Samples;Min_cycle;Max_cycle;Signal;HPM_P1;HPM_P2
2023/10/18 00:01:16;;;;;;;7.50;5.55;;;10.70;99.90;;;;;;6255399;22;20194;-76
2023/10/18 00:03:42;;;;;;;8.10;5.80;;;10.70;99.90;;;;;;6257964;22;20053;-74
2023/10/18 00:06:21;;;;;;;6.78;5.93;;;10.80;99.90;;;;;;6282698;22;20230;-74
2023/10/18 00:08:47;;;;;;;8.13;5.63;;;10.80;99.90;;;;;;6260305;22;20023;-75
2023/10/18 00:11:15;;;;;;;8.57;6.35;;;10.80;99.90;;;;;;6256299;22;20008;-75
2023/10/18 00:13:41;;;;;;;6.85;6.13;;;10.80;99.90;;;;;;6257535;22;20003;-74
2023/10/18 00:16:07;;;;;;;8.30;5.75;;;10.80;99.90;;;;;;6282852;22;20042;-75
2023/10/18 00:18:34;;;;;;;7.40;6.13;;;10.80;99.90;;;;;;6282723;22;20011;-75
2023/10/18 00:21:05;;;;;;;9.57;6.70;;;10.90;99.90;;;;;;6282076;22;20019;-74
2023/10/18 00:23:32;;;;;;;6.95;6.03;;;10.90;99.90;;;;;;6282974;22;20038;-73
2023/10/18 00:26:08;;;;;;;7.88;6.10;;;10.80;99.90;;;;;;6257258;22;20016;-76
2023/10/18 00:28:38;;;;;;;10.48;6.90;;;10.90;99.90;;;;;;6257319;22;20047;-76
2023/10/18 00:31:11;;;;;;;9.45;6.80;;;10.90;99.90;;;;;;6256837;22;20067;-77
2023/10/18 00:33:38;;;;;;;8.07;6.65;;;10.90;99.90;;;;;;6281262;22;20023;-76
2023/10/18 00:36:04;;;;;;;8.82;6.68;;;10.90;99.90;;;;;;6282259;22;20014;-74
2023/10/18 00:38:30;;;;;;;8.57;7.07;;;10.80;99.90;;;;;;6232517;22;20035;-76
2023/10/18 00:40:56;;;;;;;10.95;7.82;;;10.90;99.90;;;;;;6257500;22;20012;-77
2023/10/18 00:43:25;;;;;;;8.88;6.63;;;10.80;99.90;;;;;;6256633;22;20046;-75
2023/10/18 00:45:52;;;;;;;11.27;7.53;;;10.80;99.90;;;;;;6257582;22;20039;-76
2023/10/18 00:48:20;;;;;;;13.32;8.45;;;10.80;99.90;;;;;;6231683;22;20026;-74
2023/10/18 00:50:48;;;;;;;11.43;8.13;;;10.80;99.90;;;;;;6282985;22;20008;-77
2023/10/18 00:53:22;;;;;;;9.63;7.30;;;10.80;99.90;;;;;;6280425;22;20053;-76
2023/10/18 00:55:52;;;;;;;10.43;8.02;;;10.80;99.90;;;;;;6283343;22;20016;-76
2023/10/18 00:58:21;;;;;;;10.88;7.78;;;10.80;99.90;;;;;;6283050;22;20043;-77
2023/10/18 01:00:48;;;;;;;10.80;7.97;;;10.70;99.90;;;;;;6257769;22;20050;-76
2023/10/18 01:03:28;;;;;;;13.63;9.73;;;10.70;99.90;;;;;;6231189;22;20083;-76
2023/10/18 01:06:19;;;;;;;10.45;8.48;;;10.70;99.90;;;;;;6281801;22;20182;-77
2023/10/18 01:08:45;;;;;;;11.00;8.55;;;10.70;99.90;;;;;;6257102;22;20085;-73
2023/10/18 01:11:12;;;;;;;10.23;8.13;;;10.60;99.90;;;;;;6257256;22;20042;-72
2023/10/18 01:13:42;;;;;;;12.07;8.75;;;10.60;99.90;;;;;;6256573;22;20008;-72
2023/10/18 01:16:13;;;;;;;12.57;9.32;;;10.60;99.90;;;;;;6255704;22;20014;-72
2023/10/18 01:18:42;;;;;;;13.95;9.50;;;10.60;99.90;;;;;;6282679;22;20014;-76
2023/10/18 01:21:17;;;;;;;12.35;9.48;;;10.60;99.90;;;;;;6232377;22;20030;-73
2023/10/18 01:24:13;;;;;;;14.00;10.20;;;10.60;99.90;;;;;;6281163;22;20019;-73
2023/10/18 01:26:39;;;;;;;15.27;9.55;;;10.50;99.90;;;;;;6282659;22;20011;-74
2023/10/18 01:29:08;;;;;;;12.68;10.30;;;10.50;99.90;;;;;;6282828;22;20012;-74
2023/10/18 01:31:34;;;;;;;15.85;10.40;;;10.50;99.90;;;;;;6259814;22;20308;-76
2023/10/18 01:34:02;;;;;;;14.43;9.93;;;10.50;99.90;;;;;;6231670;22;20007;-75
2023/10/18 01:36:31;;;;;;;13.60;9.90;;;10.50;99.90;;;;;;6284807;22;20011;-76
2023/10/18 01:38:58;;;;;;;16.30;11.40;;;10.50;99.90;;;;;;6284400;22;20047;-76
2023/10/18 01:41:30;;;;;;;17.20;10.80;;;10.50;99.90;;;;;;6259340;22;20011;-76
2023/10/18 01:44:10;;;;;;;15.02;10.80;;;10.50;99.90;;;;;;6283137;22;20019;-75
2023/10/18 01:46:48;;;;;;;15.52;10.38;;;10.50;99.90;;;;;;6284554;22;20012;-75
2023/10/18 01:49:17;;;;;;;14.18;10.20;;;10.40;99.90;;;;;;6258699;22;20039;-73
2023/10/18 01:51:45;;;;;;;17.48;11.63;;;10.40;99.90;;;;;;6259064;22;20071;-75
2023/10/18 01:54:15;;;;;;;15.68;10.98;;;10.40;99.90;;;;;;6283511;22;20063;-76
2023/10/18 01:56:47;;;;;;;12.88;10.27;;;10.50;99.90;;;;;;6284486;22;20314;-73
2023/10/18 01:59:14;;;;;;;16.63;11.25;;;10.50;99.90;;;;;;6284265;22;20047;-74
2023/10/18 02:01:44;;;;;;;14.80;10.45;;;10.50;99.90;;;;;;6284273;22;20038;-75
2023/10/18 02:04:11;;;;;;;12.85;10.18;;;10.50;99.90;;;;;;6259288;22;20075;-75
2023/10/18 02:06:37;;;;;;;13.77;10.63;;;10.40;99.90;;;;;;6264272;22;20034;-75
2023/10/18 02:09:10;;;;;;;15.27;11.00;;;10.50;99.90;;;;;;6263691;22;20015;-76
2023/10/18 02:11:36;;;;;;;14.90;10.27;;;10.50;99.90;;;;;;6289578;22;20069;-76
2023/10/18 02:14:02;;;;;;;12.85;10.30;;;10.40;99.90;;;;;;6261731;22;20007;-74
2023/10/18 02:16:31;;;;;;;13.80;10.60;;;10.40;99.90;;;;;;6289713;22;20204;-74
2023/10/18 02:18:57;;;;;;;14.05;11.00;;;10.40;99.90;;;;;;6239654;22;20224;-73
2023/10/18 02:21:25;;;;;;;13.40;10.93;;;10.30;99.90;;;;;;6289169;22;20039;-75
2023/10/18 02:23:51;;;;;;;13.55;10.38;;;10.30;99.90;;;;;;6238283;22;20011;-74
2023/10/18 02:34:33;;;;;;;13.23;9.65;;;10.30;99.90;;;;;;6316145;22;20014;-77
2023/10/18 02:37:01;;;;;;;15.93;10.73;;;10.30;99.90;;;;;;6262713;22;20042;-76
2023/10/18 02:39:27;;;;;;;13.38;10.05;;;10.20;99.90;;;;;;6263522;22;20074;-76
2023/10/18 02:41:56;;;;;;;14.60;10.00;;;10.20;99.90;;;;;;6263013;22;20026;-76
2023/10/18 02:44:22;;;;;;;13.52;9.75;;;10.20;99.90;;;;;;6289291;22;20335;-75
2023/10/18 02:47:03;;;;;;;12.35;9.63;;;10.20;99.90;;;;;;6237473;22;20034;-76
2023/10/18 02:49:29;;;;;;;13.50;9.82;;;10.20;99.90;;;;;;6288501;22;20017;-75
2023/10/18 02:51:56;;;;;;;10.55;9.45;;;10.20;99.90;;;;;;6263677;22;20007;-76
2023/10/18 02:54:24;;;;;;;13.05;9.90;;;10.20;99.90;;;;;;6289338;22;20523;-76
2023/10/18 02:56:50;;;;;;;13.13;9.55;;;10.20;99.90;;;;;;6289037;22;20007;-76
2023/10/18 02:59:27;;;;;;;12.93;9.55;;;10.20;99.90;;;;;;6263488;22;20014;-77
2023/10/18 03:01:57;;;;;;;13.07;9.40;;;10.20;99.90;;;;;;6288757;22;20015;-75
2023/10/18 03:04:28;;;;;;;13.38;9.90;;;10.20;99.90;;;;;;6263512;22;20278;-78
2023/10/18 03:06:54;;;;;;;14.50;9.35;;;10.20;99.90;;;;;;6263089;22;20088;-79
2023/10/18 03:11:58;;;;;;;11.18;8.85;;;10.20;99.90;;;;;;6288790;22;20011;-77
2023/10/18 03:14:41;;;;;;;13.60;9.68;;;10.20;99.90;;;;;;6263630;22;20355;-76
2023/10/18 03:17:23;;;;;;;13.25;10.02;;;10.30;99.90;;;;;;6288784;22;20014;-77
2023/10/18 03:19:50;;;;;;;11.75;9.82;;;10.20;99.90;;;;;;6289100;22;20007;-76
2023/10/18 03:22:19;;;;;;;12.10;9.88;;;10.20;99.90;;;;;;6238176;22;20011;-76
2023/10/18 03:24:47;;;;;;;11.30;9.27;;;10.20;99.90;;;;;;6288830;22;20003;-79
2023/10/18 03:27:13;;;;;;;11.30;8.88;;;10.20;99.90;;;;;;6288584;22;20080;-77
2023/10/18 03:29:39;;;;;;;14.88;9.75;;;10.30;99.90;;;;;;6263135;22;20007;-78
2023/10/18 03:32:08;;;;;;;12.85;9.43;;;10.30;99.90;;;;;;6288448;22;20041;-77
2023/10/18 03:34:41;;;;;;;15.20;9.68;;;10.30;99.90;;;;;;6263412;22;20003;-77
2023/10/18 03:37:08;;;;;;;13.00;10.02;;;10.30;99.90;;;;;;6264082;22;20077;-78
2023/10/18 03:39:33;;;;;;;15.80;10.60;;;10.30;99.90;;;;;;6263450;22;20023;-79
2023/10/18 03:42:00;;;;;;;15.98;10.85;;;10.30;99.90;;;;;;6238077;22;20438;-79
2023/10/18 03:44:27;;;;;;;13.93;10.48;;;10.30;99.90;;;;;;6288597;22;20007;-80
2023/10/18 03:47:11;;;;;;;15.02;10.45;;;10.40;99.90;;;;;;6262931;22;20170;-79
2023/10/18 03:49:37;;;;;;;14.07;11.00;;;10.20;99.90;;;;;;6288891;22;20062;-78
2023/10/18 03:57:31;;;;;;;15.45;10.68;;;10.20;99.90;;;;;;6288530;22;20070;-75
2023/10/18 04:00:08;;;;;;;18.33;12.27;;;10.20;99.90;;;;;;6265149;22;20007;-76
2023/10/18 04:02:34;;;;;;;15.98;11.02;;;10.20;99.90;;;;;;6262923;22;20217;-77
2023/10/18 04:05:10;;;;;;;17.13;11.40;;;10.20;99.90;;;;;;6262424;22;20062;-77
2023/10/18 04:07:38;;;;;;;20.02;13.82;;;10.20;99.90;;;;;;6263010;22;20020;-78
2023/10/18 04:10:12;;;;;;;15.25;11.88;;;10.20;99.90;;;;;;6288160;22;20014;-77
2023/10/18 04:12:40;;;;;;;17.05;11.88;;;10.20;99.90;;;;;;6264739;22;20007;-77
2023/10/18 04:15:21;;;;;;;19.05;13.65;;;10.20;99.90;;;;;;6287991;22;20011;-77
2023/10/18 04:18:02;;;;;;;20.13;13.00;;;10.20;99.90;;;;;;6266098;22;20073;-79
2023/10/18 04:20:31;;;;;;;18.85;12.10;;;10.20;99.90;;;;;;6266200;22;20014;-78
2023/10/18 04:22:58;;;;;;;18.02;13.10;;;10.20;99.90;;;;;;6288499;22;20289;-76
2023/10/18 04:25:26;;;;;;;20.50;14.90;;;10.20;99.90;;;;;;6287187;22;20014;-76
2023/10/18 04:27:59;;;;;;;16.70;13.25;;;10.20;99.90;;;;;;6288225;22;20011;-75
2023/10/18 04:30:29;;;;;;;26.50;14.60;;;10.20;99.90;;;;;;6262579;22;20006;-75
2023/10/18 04:33:12;;;;;;;18.02;14.05;;;10.20;99.90;;;;;;6288546;22;20031;-76
2023/10/18 04:35:52;;;;;;;18.55;14.15;;;10.20;99.90;;;;;;6287606;22;20011;-76
2023/10/18 04:38:30;;;;;;;17.15;13.45;;;10.20;99.90;;;;;;6287357;22;20007;-78
2023/10/18 04:41:10;;;;;;;18.35;14.25;;;10.20;99.90;;;;;;6262556;22;20080;-75
2023/10/18 04:43:36;;;;;;;19.10;14.32;;;10.20;99.90;;;;;;6262693;22;20074;-76
2023/10/18 04:51:27;;;;;;;20.77;14.98;;;10.20;99.90;;;;;;6287843;22;20069;-75
2023/10/18 04:54:15;;;;;;;22.23;14.68;;;10.20;99.90;;;;;;6288184;22;20007;-78
2023/10/18 04:56:48;;;;;;;22.17;14.25;;;10.20;99.90;;;;;;6261305;22;20023;-79
2023/10/18 05:04:28;;;;;;;19.92;15.40;;;10.20;99.90;;;;;;6287544;22;20102;-78
2023/10/18 05:06:55;;;;;;;21.23;15.65;;;10.20;99.90;;;;;;6287539;22;20019;-78
2023/10/18 05:09:42;;;;;;;21.30;15.98;;;10.20;99.90;;;;;;6236280;22;20015;-77
2023/10/18 05:12:27;;;;;;;23.13;16.60;;;10.20;99.90;;;;;;6286795;22;20007;-76
2023/10/18 05:15:06;;;;;;;21.20;16.23;;;10.20;99.90;;;;;;6288448;22;20015;-78
2023/10/18 05:17:33;;;;;;;20.15;15.38;;;10.20;99.90;;;;;;6262579;22;20242;-75
2023/10/18 05:20:46;;;;;;;22.08;16.88;;;10.20;99.90;;;;;;6287809;22;20038;-76
2023/10/18 05:22:50;;;;;;;24.35;16.77;;;10.20;99.90;;;;;;6275659;22;20022;-81
2023/10/18 05:33:16;;;;;;;22.17;16.48;;;10.20;99.90;;;;;;6266203;22;20018;-76
2023/10/18 05:35:45;;;;;;;23.95;17.15;;;10.20;99.90;;;;;;6287893;22;20066;-76
2023/10/18 05:43:12;;;;;;;22.42;16.42;;;10.20;99.90;;;;;;6287328;22;20015;-76
2023/10/18 05:45:40;;;;;;;23.67;16.67;;;10.20;99.90;;;;;;6286220;22;20590;-76
2023/10/18 05:48:13;;;;;;;21.70;15.75;;;10.20;99.90;;;;;;6261980;22;20245;-76
2023/10/18 05:50:39;;;;;;;22.00;16.58;;;10.20;99.90;;;;;;6287557;22;20012;-75
2023/10/18 05:53:11;;;;;;;20.15;14.98;;;10.20;99.90;;;;;;6287515;22;20054;-79
2023/10/18 05:55:38;;;;;;;22.48;17.00;;;10.10;99.90;;;;;;6263309;22;20062;-80
2023/10/18 05:58:07;;;;;;;24.15;17.02;;;10.20;99.90;;;;;;6287562;22;20297;-77
2023/10/18 06:00:36;;;;;;;25.67;17.90;;;10.20;99.90;;;;;;6261913;22;20094;-78
2023/10/18 06:03:02;;;;;;;21.85;17.00;;;10.10;99.90;;;;;;6287377;22;20019;-76
2023/10/18 06:05:33;;;;;;;22.70;15.95;;;10.20;99.90;;;;;;6261683;22;20533;-78
2023/10/18 06:07:59;;;;;;;25.77;17.00;;;10.20;99.90;;;;;;6237541;22;20027;-82
2023/10/18 06:10:26;;;;;;;28.17;16.98;;;10.10;99.90;;;;;;6261666;22;20298;-76
2023/10/18 06:13:10;;;;;;;22.50;16.50;;;10.20;99.90;;;;;;6287675;22;20545;-76
2023/10/18 06:15:39;;;;;;;23.98;17.05;;;10.20;99.90;;;;;;6261613;22;20049;-79
2023/10/18 06:18:17;;;;;;;23.98;17.42;;;10.20;99.90;;;;;;6239377;22;20326;-77
2023/10/18 06:20:44;;;;;;;23.23;17.92;;;10.20;99.90;;;;;;6289417;22;20011;-79
2023/10/18 06:26:30;;;;;;;24.63;18.77;;;10.20;99.90;;;;;;6196241;23;20024;-79
2023/10/18 06:29:09;;;;;;;26.30;18.08;;;10.20;99.90;;;;;;6280460;22;20252;-78
2023/10/18 06:31:46;;;;;;;22.42;17.02;;;10.30;99.90;;;;;;6263251;22;20068;-77
2023/10/18 06:34:17;;;;;;;26.20;17.67;;;10.30;99.90;;;;;;6240072;22;20258;-79
2023/10/18 06:36:47;;;;;;;26.35;18.13;;;10.30;99.90;;;;;;6263661;22;20015;-79
2023/10/18 06:39:58;;;;;;;32.95;19.40;;;10.30;99.90;;;;;;6262135;22;20046;-77
2023/10/18 06:42:12;;;;;;;24.98;17.17;;;10.30;99.90;;;;;;6272779;22;20015;-79
2023/10/18 06:44:42;;;;;;;26.75;18.45;;;10.30;99.90;;;;;;6265332;22;20062;-76
2023/10/18 06:47:13;;;;;;;22.38;16.85;;;10.40;99.90;;;;;;6263441;22;20039;-80
2023/10/18 06:49:42;;;;;;;23.13;16.60;;;10.40;99.90;;;;;;6288601;22;20014;-79
2023/10/18 06:52:09;;;;;;;30.38;18.42;;;10.40;99.90;;;;;;6238860;22;20015;-79
2023/10/18 06:54:38;;;;;;;29.10;19.58;;;10.50;99.90;;;;;;6288640;22;20329;-77
2023/10/18 06:57:18;;;;;;;28.02;19.58;;;10.50;99.90;;;;;;6288678;22;20015;-78
2023/10/18 06:59:47;;;;;;;29.00;19.60;;;10.50;99.90;;;;;;6262019;22;20007;-79
2023/10/18 07:02:14;;;;;;;27.92;18.58;;;10.60;99.90;;;;;;6262120;22;20105;-76
2023/10/18 07:04:50;;;;;;;25.70;18.63;;;10.60;99.90;;;;;;6263174;22;20023;-78
2023/10/18 07:07:20;;;;;;;28.45;17.85;;;10.60;99.90;;;;;;6262917;22;20069;-76
2023/10/18 07:09:54;;;;;;;25.95;18.95;;;10.70;99.90;;;;;;6237457;22;20186;-79
2023/10/18 07:12:26;;;;;;;29.05;18.67;;;10.80;99.90;;;;;;6288574;22;20022;-78
2023/10/18 07:14:55;;;;;;;24.98;18.35;;;10.80;99.90;;;;;;6288342;22;20007;-79
2023/10/18 07:17:24;;;;;;;24.95;18.40;;;10.90;99.90;;;;;;6262736;22;20070;-79
2023/10/18 07:19:58;;;;;;;23.42;16.58;;;10.90;99.90;;;;;;6261115;22;20015;-78
2023/10/18 07:25:21;;;;;;;21.88;15.63;;;11.10;99.90;;;;;;6288669;22;20019;-78
2023/10/18 07:27:47;;;;;;;26.30;17.27;;;11.20;99.90;;;;;;6262480;22;20018;-75
2023/10/18 07:30:16;;;;;;;23.90;15.82;;;11.30;99.90;;;;;;6288118;22;20007;-81
2023/10/18 07:32:42;;;;;;;25.63;17.08;;;11.30;99.90;;;;;;6288297;22;20088;-78
2023/10/18 07:35:26;;;;;;;23.75;17.00;;;11.30;99.90;;;;;;6262436;22;20431;-79
2023/10/18 07:37:55;;;;;;;22.58;16.35;;;11.40;99.90;;;;;;6262650;22;20109;-77
2023/10/18 07:40:21;;;;;;;26.02;17.13;;;11.40;99.90;;;;;;6262337;22;20025;-75
2023/10/18 07:42:51;;;;;;;26.63;16.58;;;11.40;99.90;;;;;;6262823;22;20011;-77
2023/10/18 07:45:19;;;;;;;24.30;15.93;;;11.50;99.90;;;;;;6288427;22;20034;-76
2023/10/18 07:47:45;;;;;;;25.33;17.95;;;11.60;99.90;;;;;;6262647;22;20053;-79
2023/10/18 07:52:55;;;;;;;23.55;16.60;;;11.70;99.90;;;;;;6265372;22;20092;-77
2023/10/18 07:55:21;;;;;;;22.88;15.52;;;11.80;99.90;;;;;;6262761;22;20012;-74
2023/10/18 07:57:48;;;;;;;26.30;17.90;;;11.80;99.90;;;;;;6258566;22;20019;-80
2023/10/18 08:00:23;;;;;;;23.60;17.70;;;11.80;99.90;;;;;;6261352;22;20041;-80
2023/10/18 08:02:52;;;;;;;26.98;17.60;;;11.90;99.90;;;;;;6237996;22;20088;-78
2023/10/18 08:05:24;;;;;;;25.33;16.88;;;11.90;99.90;;;;;;6260040;22;20082;-78
2023/10/18 08:07:55;;;;;;;22.60;16.65;;;12.00;99.90;;;;;;6238835;22;20209;-79
2023/10/18 08:10:21;;;;;;;22.50;16.63;;;12.10;99.90;;;;;;6260871;22;20305;-79
2023/10/18 08:15:38;;;;;;;23.27;15.63;;;12.00;99.90;;;;;;6266125;22;20039;-77
2023/10/18 08:18:16;;;;;;;24.25;16.42;;;12.30;99.90;;;;;;6264468;22;20057;-78
2023/10/18 08:26:05;;;;;;;19.63;14.35;;;12.40;99.90;;;;;;6288720;22;20015;-81
2023/10/18 08:28:45;;;;;;;20.40;15.18;;;12.50;99.90;;;;;;6288893;22;20081;-76
2023/10/18 08:31:34;;;;;;;21.65;16.33;;;12.70;99.90;;;;;;6265661;22;20007;-77
2023/10/18 08:34:05;;;;;;;22.10;14.52;;;12.70;99.90;;;;;;6265074;22;20026;-76
2023/10/18 08:36:32;;;;;;;18.17;12.88;;;12.90;99.90;;;;;;6289408;22;20320;-78
2023/10/18 08:39:01;;;;;;;20.38;14.27;;;12.90;99.90;;;;;;6288359;22;20011;-77
2023/10/18 08:41:37;;;;;;;20.02;14.63;;;13.00;99.90;;;;;;6262609;22;20080;-74
2023/10/18 08:44:15;;;;;;;17.75;13.75;;;13.10;99.90;;;;;;6237982;22;20154;-76
2023/10/18 08:46:43;;;;;;;17.33;13.57;;;13.20;99.90;;;;;;6287660;22;20183;-77
2023/10/18 08:49:13;;;;;;;16.48;12.23;;;13.30;99.90;;;;;;6262006;22;20011;-79
2023/10/18 08:51:44;;;;;;;16.10;12.07;;;13.30;99.90;;;;;;6261740;22;20014;-75
2023/10/18 08:54:18;;;;;;;17.98;10.45;;;13.30;99.90;;;;;;6287396;22;20007;-77
2023/10/18 08:56:47;;;;;;;15.43;10.50;;;13.40;99.90;;;;;;6286992;22;20226;-77
2023/10/18 08:59:20;;;;;;;17.45;12.80;;;13.40;99.90;;;;;;6287783;22;20019;-75
2023/10/18 09:02:12;;;;;;;15.05;10.40;;;13.50;99.90;;;;;;6287137;22;20007;-76
2023/10/18 09:04:35;;;;;;;15.25;12.50;;;13.50;99.90;;;;;;6285424;22;20023;-76
2023/10/18 09:07:18;;;;;;;17.80;12.52;;;13.60;99.90;;;;;;6287041;22;20015;-78
2023/10/18 09:09:57;;;;;;;15.75;11.93;;;13.70;99.90;;;;;;6264717;22;20369;-77
2023/10/18 09:17:49;;;;;;;15.13;11.80;;;13.90;99.90;;;;;;6287136;22;20041;-79
2023/10/18 09:20:15;;;;;;;16.25;11.88;;;14.00;99.90;;;;;;6261855;22;20320;-79
2023/10/18 09:22:48;;;;;;;15.02;11.05;;;14.00;99.90;;;;;;6236172;22;20015;-77
2023/10/18 09:25:14;;;;;;;12.70;9.48;;;14.10;99.90;;;;;;6262536;22;20038;-78
2023/10/18 09:27:39;;;;;;;14.02;10.95;;;14.10;99.90;;;;;;6261054;22;20027;-77
2023/10/18 09:30:10;;;;;;;13.25;10.68;;;14.10;99.90;;;;;;6261428;22;20155;-77
2023/10/18 09:32:37;;;;;;;13.82;11.35;;;14.10;99.90;;;;;;6236882;22;20015;-77
2023/10/18 09:35:07;;;;;;;16.10;12.02;;;14.20;99.90;;;;;;6260495;22;20007;-76
2023/10/18 09:37:36;;;;;;;17.13;11.68;;;14.30;99.90;;;;;;6260619;22;20011;-76
2023/10/18 09:40:05;;;;;;;18.05;12.20;;;14.30;99.90;;;;;;6260866;22;20015;-74
2023/10/18 09:42:31;;;;;;;15.02;11.40;;;14.20;99.90;;;;;;6286507;22;20053;-77
2023/10/18 09:44:59;;;;;;;12.65;9.02;;;14.30;99.90;;;;;;6260823;22;20023;-77
2023/10/18 09:47:26;;;;;;;16.90;11.07;;;14.30;99.90;;;;;;6236372;22;20037;-76
2023/10/18 09:50:05;;;;;;;16.75;10.65;;;14.30;99.90;;;;;;6286723;22;20015;-78
2023/10/18 09:52:47;;;;;;;11.93;8.00;;;14.40;99.90;;;;;;6288150;22;20062;-79
2023/10/18 09:55:17;;;;;;;14.40;12.25;;;14.40;99.90;;;;;;6265920;22;20022;-76
2023/10/18 09:57:49;;;;;;;14.55;10.90;;;14.50;99.90;;;;;;6288026;22;20047;-75
2023/10/18 10:00:16;;;;;;;12.70;10.65;;;14.60;99.90;;;;;;6288807;22;20025;-78
2023/10/18 10:02:52;;;;;;;12.88;10.18;;;14.80;99.90;;;;;;6263133;22;20011;-78
2023/10/18 10:05:25;;;;;;;14.27;10.32;;;14.80;99.90;;;;;;6288972;22;20259;-76
2023/10/18 10:07:56;;;;;;;14.20;11.40;;;14.80;99.90;;;;;;6287136;22;20019;-76
2023/10/18 10:10:43;;;;;;;11.27;8.70;;;15.00;99.90;;;;;;6263136;22;20007;-78
2023/10/18 10:13:19;;;;;;;12.77;10.65;;;15.00;99.90;;;;;;6288333;22;20003;-78
2023/10/18 10:15:54;;;;;;;12.57;10.43;;;15.20;99.90;;;;;;6262870;22;20007;-76
2023/10/18 10:18:26;;;;;;;11.70;9.52;;;15.30;99.90;;;;;;6288248;22;20333;-78
2023/10/18 10:20:55;;;;;;;16.52;9.98;;;15.30;99.90;;;;;;6288419;22;20010;-79
2023/10/18 10:23:22;;;;;;;11.30;8.93;;;15.40;99.90;;;;;;6288726;22;20011;-79
2023/10/18 10:26:11;;;;;;;13.52;8.20;;;15.40;99.90;;;;;;6288212;22;20027;-77
2023/10/18 10:31:52;;;;;;;12.52;10.73;;;15.40;99.90;;;;;;6266316;22;20309;-74
2023/10/18 10:34:24;;;;;;;11.13;8.85;;;15.50;99.90;;;;;;6288048;22;20019;-78
2023/10/18 10:37:09;;;;;;;10.15;7.60;;;15.60;99.90;;;;;;6288244;22;20011;-77
2023/10/18 10:39:36;;;;;;;;;;;15.50;99.90;;;;;;6263587;22;20222;-76
2023/10/18 10:42:08;;;;;;;8.93;6.75;;;15.60;99.90;;;;;;6288115;22;20046;-77
2023/10/18 10:44:56;;;;;;;11.73;9.32;;;15.60;99.90;;;;;;6262223;22;20057;-75
2023/10/18 10:47:29;;;;;;;9.27;7.22;;;15.70;99.90;;;;;;6287453;22;20194;-75
2023/10/18 10:50:01;;;;;;;8.25;6.40;;;15.70;99.90;;;;;;6287260;22;20113;-77
2023/10/18 10:52:29;;;;;;;9.07;6.97;;;15.80;99.90;;;;;;6262004;22;20018;-77
2023/10/18 10:55:18;;;;;;;11.27;7.43;;;15.90;99.90;;;;;;6288605;22;20007;-75
2023/10/18 10:57:46;;;;;;;11.18;9.30;;;15.90;99.90;;;;;;6287922;22;20053;-76
2023/10/18 11:00:22;;;;;;;10.35;7.93;;;15.90;99.90;;;;;;6261955;22;20357;-77
2023/10/18 11:02:54;;;;;;;9.18;7.72;;;15.90;99.90;;;;;;6287628;22;20019;-75
2023/10/18 11:05:24;;;;;;;10.52;7.72;;;15.90;99.90;;;;;;6257406;22;20023;-77
2023/10/18 11:07:53;;;;;;;11.73;8.80;;;16.00;99.90;;;;;;6256683;22;20023;-77
2023/10/18 11:10:19;;;;;;;12.05;7.78;;;16.00;99.90;;;;;;6282706;22;20087;-76
2023/10/18 11:12:48;;;;;;;11.55;8.50;;;16.00;99.90;;;;;;6256387;22;20059;-79
2023/10/18 11:15:17;;;;;;;10.75;7.75;;;16.10;99.90;;;;;;6283030;22;20019;-77
2023/10/18 11:17:45;;;;;;;11.60;7.53;;;16.10;99.90;;;;;;6257902;22;20071;-76
2023/10/18 11:20:29;;;;;;;11.80;8.48;;;16.10;99.90;;;;;;6257004;22;20019;-77
2023/10/18 11:22:56;;;;;;;10.60;8.15;;;16.10;99.90;;;;;;6260363;22;20358;-76
2023/10/18 11:25:30;;;;;;;13.75;9.35;;;16.20;99.90;;;;;;6257090;22;20011;-77
2023/10/18 11:28:10;;;;;;;12.80;9.33;;;16.30;99.90;;;;;;6282739;22;20018;-79
2023/10/18 11:30:37;;;;;;;7.90;6.68;;;16.30;99.90;;;;;;6282072;22;20242;-77
2023/10/18 11:33:03;;;;;;;10.05;8.05;;;16.30;99.90;;;;;;6282486;22;20008;-79
2023/10/18 11:38:10;;;;;;;8.50;7.03;;;16.40;99.90;;;;;;6236888;22;20198;-75
2023/10/18 11:40:40;;;;;;;11.18;7.68;;;16.30;99.90;;;;;;6256804;22;20021;-78
2023/10/18 11:43:10;;;;;;;14.68;9.45;;;16.40;99.90;;;;;;6258046;22;20019;-76
2023/10/18 11:45:40;;;;;;;9.88;8.43;;;16.40;99.90;;;;;;6282304;22;20019;-77
2023/10/18 11:48:14;;;;;;;10.63;7.93;;;16.50;99.90;;;;;;6231605;22;20289;-75
2023/10/18 11:50:47;;;;;;;7.38;5.85;;;16.40;99.90;;;;;;6282179;22;20008;-76
2023/10/18 11:53:15;;;;;;;8.20;6.60;;;16.40;99.90;;;;;;6282597;22;20038;-79
2023/10/18 11:55:58;;;;;;;12.48;8.48;;;16.40;99.90;;;;;;6282471;22;20362;-75
2023/10/18 11:58:26;;;;;;;9.07;6.50;;;16.50;99.90;;;;;;6282516;22;20011;-76
2023/10/18 12:01:01;;;;;;;9.85;7.15;;;16.40;99.90;;;;;;6257288;22;20012;-78
2023/10/18 12:03:33;;;;;;;7.97;5.88;;;16.40;99.90;;;;;;6232734;22;20019;-79
2023/10/18 12:06:03;;;;;;;9.32;7.75;;;16.40;99.90;;;;;;6282294;22;20039;-77
2023/10/18 12:08:40;;;;;;;8.18;6.40;;;16.50;99.90;;;;;;6257763;22;20028;-77
2023/10/18 12:11:09;;;;;;;9.50;7.78;;;16.40;99.90;;;;;;6234118;22;20027;-75
2023/10/18 12:13:34;;;;;;;10.60;8.00;;;16.50;99.90;;;;;;6281455;22;20313;-76
2023/10/18 12:16:08;;;;;;;10.18;8.30;;;16.60;99.90;;;;;;6256758;22;20070;-76
2023/10/18 12:18:35;;;;;;;10.60;7.70;;;16.60;99.90;;;;;;6230583;22;20015;-76
2023/10/18 12:21:01;;;;;;;9.20;7.15;;;16.70;99.90;;;;;;6255869;22;20213;-77
2023/10/18 12:23:27;;;;;;;8.13;6.78;;;16.60;99.90;;;;;;6277744;22;20218;-77
2023/10/18 12:25:53;;;;;;;10.73;8.13;;;16.60;99.90;;;;;;6254732;22;20033;-78
2023/10/18 12:28:27;;;;;;;8.32;6.63;;;16.70;99.90;;;;;;6255456;22;20053;-77
2023/10/18 12:31:00;;;;;;;10.45;7.53;;;16.60;99.90;;;;;;6281098;22;20008;-77
2023/10/18 12:33:33;;;;;;;10.02;8.43;;;16.60;99.90;;;;;;6257262;22;20053;-76
2023/10/18 12:36:01;;;;;;;10.80;6.88;;;16.70;99.90;;;;;;6208852;22;20042;-76
2023/10/18 12:38:31;;;;;;;7.88;6.05;;;16.70;99.90;;;;;;6256450;22;20011;-78
2023/10/18 12:41:18;;;;;;;10.35;7.65;;;16.70;99.90;;;;;;6255939;22;20067;-74
2023/10/18 12:43:47;;;;;;;8.85;7.30;;;16.70;99.90;;;;;;6256149;22;20054;-78
2023/10/18 12:46:17;;;;;;;10.73;7.00;;;16.80;99.90;;;;;;6281876;22;20025;-77
2023/10/18 12:48:46;;;;;;;10.82;6.65;;;16.80;99.90;;;;;;6281079;22;20025;-79
2023/10/18 12:51:14;;;;;;;7.78;5.68;;;16.80;99.90;;;;;;6281372;22;20015;-77
2023/10/18 12:59:37;;;;;;;11.68;7.97;;;16.80;99.90;;;;;;6257961;22;20127;-75
2023/10/18 13:04:07;;;;;;;10.35;7.60;;;16.70;99.90;;;;;;6280814;22;20030;-75
2023/10/18 13:06:43;;;;;;;11.85;5.72;;;16.70;99.90;;;;;;6255794;22;20037;-74
2023/10/18 13:14:31;;;;;;;9.23;6.70;;;16.70;99.90;;;;;;6279954;22;20011;-79
2023/10/18 13:17:00;;;;;;;9.80;6.72;;;16.60;99.90;;;;;;6254596;22;20026;-77
2023/10/18 13:19:30;;;;;;;14.30;8.73;;;16.60;99.90;;;;;;6230533;22;20068;-75
2023/10/18 13:21:56;;;;;;;10.13;6.90;;;16.60;99.90;;;;;;6231927;22;20183;-75
2023/10/18 13:26:59;;;;;;;11.30;7.38;;;16.60;99.90;;;;;;6282606;22;20016;-78
2023/10/18 13:31:52;;;;;;;8.05;6.15;;;16.60;99.90;;;;;;6282623;22;20102;-76
2023/10/18 13:34:18;;;;;;;11.13;6.95;;;16.60;99.90;;;;;;6282942;22;20043;-76
2023/10/18 13:36:48;;;;;;;13.20;8.38;;;16.60;99.90;;;;;;6282702;22;20198;-75
2023/10/18 13:39:16;;;;;;;9.63;7.85;;;16.60;99.90;;;;;;6283505;22;20014;-75
2023/10/18 13:41:46;;;;;;;8.93;7.55;;;16.60;99.90;;;;;;6283266;22;20043;-75
2023/10/18 13:44:13;;;;;;;10.20;6.63;;;16.60;99.90;;;;;;6258267;22;20242;-78
2023/10/18 13:46:38;;;;;;;11.63;6.80;;;16.60;99.90;;;;;;6283658;22;20012;-79
2023/10/18 13:49:08;;;;;;;8.98;6.60;;;16.60;99.90;;;;;;6257797;22;20035;-76
2023/10/18 13:51:37;;;;;;;10.63;7.60;;;16.60;99.90;;;;;;6258695;22;20511;-75
2023/10/18 13:54:07;;;;;;;9.20;5.82;;;16.70;99.90;;;;;;6282885;22;20035;-77
2023/10/18 13:56:34;;;;;;;8.30;5.95;;;16.60;99.90;;;;;;6258777;22;20126;-76
2023/10/18 13:59:01;;;;;;;8.23;5.95;;;16.60;99.90;;;;;;6282944;22;20047;-77
2023/10/18 14:01:28;;;;;;;11.60;6.75;;;16.70;99.90;;;;;;6257499;22;20122;-76
2023/10/18 14:03:55;;;;;;;10.80;6.53;;;16.70;99.90;;;;;;6282342;22;20012;-76
2023/10/18 14:06:22;;;;;;;9.60;6.10;;;16.70;99.90;;;;;;6282814;22;20020;-79
2023/10/18 14:08:47;;;;;;;8.10;5.20;;;16.70;99.90;;;;;;6282552;22;20079;-76
2023/10/18 14:11:14;;;;;;;9.77;7.28;;;16.70;99.90;;;;;;6257343;22;20023;-76
2023/10/18 14:13:43;;;;;;;9.68;5.43;;;16.70;99.90;;;;;;6282887;22;20197;-77
2023/10/18 14:16:12;;;;;;;10.95;7.05;;;16.70;99.90;;;;;;6257521;22;20049;-77
2023/10/18 14:18:40;;;;;;;11.02;6.75;;;16.70;99.90;;;;;;6282891;22;20057;-76